Time;durP1;ratioP1;P1;durP2;ratioP2;P2;SDS_P1;SDS_P2;PMS_P1;PMS_P2;Temp;Humidity;BMP_temperature;BMP_pressure;BME280_temperature;BME280_humidity;BME280_pressure;Samples;Min_cycle;Max_cycle;Signal;HPM_P1;HPM_P2
2024/02/12 00:00:18;;;;;;;;;3.25;3.25;;;;;;;;5047963;28;10356;-85
2024/02/12 00:02:47;;;;;;;;;2.25;2.25;;;;;;;;5049433;28;10405;-84
2024/02/12 00:05:14;;;;;;;;;7.75;4.50;;;;;;;;5047596;28;10242;-85
2024/02/12 00:07:42;;;;;;;;;7.75;3.75;;;;;;;;5050639;28;10263;-86
2024/02/12 00:10:12;;;;;;;;;4.25;4.25;;;;;;;;5051696;28;10307;-85
2024/02/12 00:12:39;;;;;;;;;3.75;3.75;;;;;;;;5052086;28;10257;-84
2024/02/12 00:15:08;;;;;;;;;3.25;3.00;;;;;;;;5050196;28;10377;-85
2024/02/12 00:17:36;;;;;;;;;3.00;3.00;;;;;;;;5047730;28;11046;-85
2024/02/12 00:20:09;;;;;;;;;5.00;3.00;;;;;;;;5049365;28;10324;-85
2024/02/12 00:22:39;;;;;;;;;4.00;2.25;;;;;;;;5052279;28;10309;-86
2024/02/12 00:25:07;;;;;;;;;5.00;3.75;;;;;;;;5040657;28;10332;-85
2024/02/12 00:27:35;;;;;;;;;3.00;3.00;;;;;;;;5052452;28;10532;-84
2024/02/12 00:30:02;;;;;;;;;2.25;2.25;;;;;;;;5052084;28;10413;-83
2024/02/12 00:32:30;;;;;;;;;3.00;1.25;;;;;;;;5051573;28;10362;-84
2024/02/12 00:34:57;;;;;;;;;5.75;3.50;;;;;;;;5052030;28;10268;-84
2024/02/12 00:37:26;;;;;;;;;3.00;2.00;;;;;;;;5051761;28;10536;-84
2024/02/12 00:39:58;;;;;;;;;1.75;1.75;;;;;;;;5052452;28;10559;-84
2024/02/12 00:42:25;;;;;;;;;2.75;2.75;;;;;;;;5052147;28;10565;-84
2024/02/12 00:44:56;;;;;;;;;5.00;2.25;;;;;;;;5052808;28;10483;-89
2024/02/12 00:47:27;;;;;;;;;2.00;2.00;;;;;;;;5052172;28;10586;-83
2024/02/12 00:49:54;;;;;;;;;2.50;2.50;;;;;;;;5051776;28;10459;-85
2024/02/12 00:52:24;;;;;;;;;2.00;2.00;;;;;;;;5052053;28;10603;-85
2024/02/12 00:54:53;;;;;;;;;3.50;3.00;;;;;;;;5051215;28;10484;-85
2024/02/12 00:57:20;;;;;;;;;4.25;2.00;;;;;;;;5051254;28;10481;-87
2024/02/12 00:59:48;;;;;;;;;3.25;3.25;;;;;;;;5051998;28;10529;-84
2024/02/12 01:02:15;;;;;;;;;3.00;3.00;;;;;;;;5052001;28;10423;-83
2024/02/12 01:04:44;;;;;;;;;3.75;3.50;;;;;;;;5052392;28;10520;-85
2024/02/12 01:07:11;;;;;;;;;3.25;3.00;;;;;;;;5040749;28;10750;-84
2024/02/12 01:09:39;;;;;;;;;3.75;2.00;;;;;;;;5053924;28;10596;-84
2024/02/12 01:12:09;;;;;;;;;4.00;2.00;;;;;;;;5056294;28;10562;-87
2024/02/12 01:14:37;;;;;;;;;1.00;1.00;;;;;;;;5057268;28;10459;-86
2024/02/12 01:17:05;;;;;;;;;7.00;2.25;;;;;;;;5057864;28;10481;-84
2024/02/12 01:19:36;;;;;;;;;2.75;2.75;;;;;;;;5056343;28;10615;-85
2024/02/12 01:22:05;;;;;;;;;2.00;2.00;;;;;;;;5056890;28;10682;-85
2024/02/12 01:24:32;;;;;;;;;2.50;1.00;;;;;;;;5056536;28;10696;-86
2024/02/12 01:27:00;;;;;;;;;2.00;1.00;;;;;;;;5055921;28;10613;-84
2024/02/12 01:29:29;;;;;;;;;1.00;1.00;;;;;;;;5053079;28;10521;-84
2024/02/12 01:31:56;;;;;;;;;2.50;1.50;;;;;;;;5069516;28;10405;-84
2024/02/12 01:34:24;;;;;;;;;2.00;2.00;;;;;;;;5067300;28;10445;-84
2024/02/12 01:36:58;;;;;;;;;2.25;2.25;;;;;;;;5052205;28;10474;-84
2024/02/12 01:39:26;;;;;;;;;1.25;1.25;;;;;;;;5051013;28;10611;-84
2024/02/12 01:41:53;;;;;;;;;2.00;2.00;;;;;;;;5051112;28;10649;-89
2024/02/12 01:44:22;;;;;;;;;1.75;1.00;;;;;;;;5050535;28;10562;-90
2024/02/12 01:46:57;;;;;;;;;2.50;1.25;;;;;;;;5051155;28;10730;-86
2024/02/12 01:49:27;;;;;;;;;2.00;2.00;;;;;;;;5051105;28;10680;-83
2024/02/12 01:51:54;;;;;;;;;1.00;1.00;;;;;;;;5050842;28;10672;-84
2024/02/12 01:54:23;;;;;;;;;1.00;1.00;;;;;;;;5051576;28;10692;-89
2024/02/12 01:56:51;;;;;;;;;2.00;2.00;;;;;;;;5051619;28;10590;-89
2024/02/12 01:59:18;;;;;;;;;2.50;2.00;;;;;;;;5053356;28;10788;-87
2024/02/12 02:01:47;;;;;;;;;3.75;2.00;;;;;;;;5053781;28;10819;-86
2024/02/12 02:04:17;;;;;;;;;4.00;3.00;;;;;;;;5053154;28;10848;-85
2024/02/12 02:06:53;;;;;;;;;3.50;3.00;;;;;;;;5050990;28;10947;-84
2024/02/12 02:09:21;;;;;;;;;1.50;1.50;;;;;;;;5050347;28;10931;-84
2024/02/12 02:11:48;;;;;;;;;3.50;3.50;;;;;;;;5050232;28;10809;-85
2024/02/12 02:14:15;;;;;;;;;3.25;2.25;;;;;;;;5049906;28;11142;-84
2024/02/12 02:16:45;;;;;;;;;2.75;2.75;;;;;;;;5054608;28;10803;-86
2024/02/12 02:19:12;;;;;;;;;3.00;1.00;;;;;;;;5057445;28;10975;-83
2024/02/12 02:21:41;;;;;;;;;2.00;2.00;;;;;;;;5050063;28;11069;-84
2024/02/12 02:24:10;;;;;;;;;4.00;2.50;;;;;;;;5049783;28;10977;-84
2024/02/12 02:26:38;;;;;;;;;6.25;2.25;;;;;;;;5049561;28;11085;-86
2024/02/12 02:29:05;;;;;;;;;1.00;1.00;;;;;;;;5050429;28;11055;-88
2024/02/12 02:31:35;;;;;;;;;2.00;2.00;;;;;;;;5049425;28;11054;-84
2024/02/12 02:34:03;;;;;;;;;1.00;1.00;;;;;;;;5049861;28;11297;-87
2024/02/12 02:36:34;;;;;;;;;1.00;1.00;;;;;;;;5049637;28;11158;-85
2024/02/12 02:39:03;;;;;;;;;1.50;1.50;;;;;;;;5049581;28;10982;-84
2024/02/12 02:41:33;;;;;;;;;1.50;1.50;;;;;;;;5050196;28;11114;-84
2024/02/12 02:44:04;;;;;;;;;1.25;1.00;;;;;;;;5049717;28;10960;-85
2024/02/12 02:46:31;;;;;;;;;0.50;0.50;;;;;;;;5050150;28;10816;-84
2024/02/12 02:48:58;;;;;;;;;1.00;0.00;;;;;;;;5049624;28;10828;-84
2024/02/12 02:51:34;;;;;;;;;1.00;1.00;;;;;;;;5049637;28;10910;-84
2024/02/12 02:54:03;;;;;;;;;2.00;2.00;;;;;;;;5049549;28;10899;-87
2024/02/12 02:56:43;;;;;;;;;3.75;1.00;;;;;;;;5050034;28;11840;-89
2024/02/12 02:59:10;;;;;;;;;1.50;1.50;;;;;;;;5050400;28;11009;-86
2024/02/12 03:01:40;;;;;;;;;2.75;2.00;;;;;;;;5051593;28;10907;-84
2024/02/12 03:04:07;;;;;;;;;1.00;1.00;;;;;;;;5041980;28;10866;-83
2024/02/12 03:06:34;;;;;;;;;1.00;1.00;;;;;;;;5054010;28;10958;-83
2024/02/12 03:09:03;;;;;;;;;2.75;1.00;;;;;;;;5054338;28;11039;-84
2024/02/12 03:11:30;;;;;;;;;1.00;1.00;;;;;;;;5053940;28;10974;-84
2024/02/12 03:13:59;;;;;;;;;0.00;0.00;;;;;;;;5054520;28;10912;-86
2024/02/12 03:16:26;;;;;;;;;1.75;1.75;;;;;;;;5053420;28;10901;-86
2024/02/12 03:18:56;;;;;;;;;1.00;1.00;;;;;;;;5051653;28;11058;-86
2024/02/12 03:21:26;;;;;;;;;1.00;1.00;;;;;;;;5049339;28;11041;-84
2024/02/12 03:23:57;;;;;;;;;1.00;1.00;;;;;;;;5049589;28;11077;-86
2024/02/12 03:26:24;;;;;;;;;1.00;1.00;;;;;;;;5049229;28;11135;-83
2024/02/12 03:28:54;;;;;;;;;1.75;1.50;;;;;;;;5049409;28;11167;-93
2024/02/12 03:31:23;;;;;;;;;0.50;0.50;;;;;;;;5039170;28;10966;-87
2024/02/12 03:33:53;;;;;;;;;0.75;0.50;;;;;;;;5048735;28;10972;-84
2024/02/12 03:36:20;;;;;;;;;3.00;1.00;;;;;;;;5047257;28;10973;-86
2024/02/12 03:38:47;;;;;;;;;3.50;1.00;;;;;;;;5049209;28;11179;-87
2024/02/12 03:41:20;;;;;;;;;1.00;1.00;;;;;;;;5048215;28;11050;-84
2024/02/12 03:43:48;;;;;;;;;1.00;1.00;;;;;;;;5047619;28;11011;-85
2024/02/12 03:46:20;;;;;;;;;1.25;1.25;;;;;;;;5049685;28;11205;-84
2024/02/12 03:59:53;;;;;;;;;2.00;2.00;;;;;;;;5052240;28;10810;-85
2024/02/12 04:02:22;;;;;;;;;1.00;1.00;;;;;;;;5052207;28;10888;-85
2024/02/12 04:04:51;;;;;;;;;4.50;1.00;;;;;;;;5053180;28;10905;-84
2024/02/12 04:07:21;;;;;;;;;0.00;0.00;;;;;;;;5068096;28;11040;-83
2024/02/12 04:09:51;;;;;;;;;3.25;1.00;;;;;;;;5053153;28;11605;-89
2024/02/12 04:12:19;;;;;;;;;0.50;0.00;;;;;;;;5055016;28;10910;-83
2024/02/12 04:14:47;;;;;;;;;1.00;1.00;;;;;;;;5071230;28;10791;-83
2024/02/12 04:17:15;;;;;;;;;0.50;0.50;;;;;;;;5073772;28;10928;-86
2024/02/12 04:19:43;;;;;;;;;1.75;1.00;;;;;;;;5055361;28;10892;-85
2024/02/12 04:22:14;;;;;;;;;2.00;1.00;;;;;;;;5052707;28;10936;-83
2024/02/12 04:24:42;;;;;;;;;3.00;1.00;;;;;;;;5052543;28;10973;-83
2024/02/12 04:27:09;;;;;;;;;2.00;2.00;;;;;;;;5052241;28;10996;-85
2024/02/12 04:29:39;;;;;;;;;0.50;0.50;;;;;;;;5039991;28;11161;-85
2024/02/12 04:32:11;;;;;;;;;2.00;1.00;;;;;;;;5051831;28;11088;-87
2024/02/12 04:34:39;;;;;;;;;2.25;1.50;;;;;;;;5053036;28;10895;-86
2024/02/12 04:37:08;;;;;;;;;2.00;1.00;;;;;;;;5052091;28;11118;-86
2024/02/12 04:39:37;;;;;;;;;2.00;0.00;;;;;;;;5052277;28;11053;-85
2024/02/12 04:42:04;;;;;;;;;2.50;1.25;;;;;;;;5052066;28;10988;-84
2024/02/12 04:44:32;;;;;;;;;1.75;1.00;;;;;;;;5052209;28;11145;-84
2024/02/12 04:47:00;;;;;;;;;1.00;1.00;;;;;;;;5051574;28;11218;-85
2024/02/12 04:49:29;;;;;;;;;3.00;1.00;;;;;;;;5053761;28;11139;-85
2024/02/12 04:51:57;;;;;;;;;2.00;1.00;;;;;;;;5056161;28;12024;-90
2024/02/12 04:54:24;;;;;;;;;3.00;1.50;;;;;;;;5056746;28;11259;-88
2024/02/12 04:56:53;;;;;;;;;1.00;1.00;;;;;;;;5056719;28;11556;-88
2024/02/12 04:59:21;;;;;;;;;1.25;1.00;;;;;;;;5056178;28;11529;-85
2024/02/12 05:01:48;;;;;;;;;1.00;1.00;;;;;;;;5054941;28;11184;-84
2024/02/12 05:04:17;;;;;;;;;1.00;1.00;;;;;;;;5056357;28;11569;-85
2024/02/12 05:06:45;;;;;;;;;1.00;1.00;;;;;;;;5057479;28;11433;-85
2024/02/12 05:09:15;;;;;;;;;1.00;1.00;;;;;;;;5059943;28;11457;-83
2024/02/12 05:11:45;;;;;;;;;1.50;1.00;;;;;;;;5051236;28;11528;-87
2024/02/12 05:14:14;;;;;;;;;2.00;1.00;;;;;;;;5051667;28;11469;-88
2024/02/12 05:16:45;;;;;;;;;1.00;1.00;;;;;;;;5051122;28;11550;-85
2024/02/12 05:24:41;;;;;;;;;1.00;1.00;;;;;;;;5051722;28;11448;-86
2024/02/12 05:27:09;;;;;;;;;1.00;1.00;;;;;;;;5051594;28;12279;-86
2024/02/12 05:29:37;;;;;;;;;2.00;2.00;;;;;;;;5056724;28;11494;-84
2024/02/12 05:32:05;;;;;;;;;0.00;0.00;;;;;;;;5052586;28;11462;-85
2024/02/12 05:34:33;;;;;;;;;2.00;0.25;;;;;;;;5066792;28;11470;-90
2024/02/12 05:37:01;;;;;;;;;1.00;1.00;;;;;;;;5052899;28;11576;-87
2024/02/12 05:39:30;;;;;;;;;2.75;2.00;;;;;;;;5055995;28;11449;-91
2024/02/12 05:41:57;;;;;;;;;11.50;11.50;;;;;;;;5058581;28;11579;-89
2024/02/12 05:44:24;;;;;;;;;1.00;1.00;;;;;;;;5063961;28;11662;-89
2024/02/12 05:46:55;;;;;;;;;3.00;1.50;;;;;;;;5052856;28;11462;-91
2024/02/12 05:49:26;;;;;;;;;1.75;1.50;;;;;;;;5061575;28;11473;-95
2024/02/12 05:51:54;;;;;;;;;2.50;1.00;;;;;;;;5053260;28;11544;-89
2024/02/12 05:54:22;;;;;;;;;4.50;2.00;;;;;;;;5051735;28;11466;-85
2024/02/12 05:56:49;;;;;;;;;1.75;1.75;;;;;;;;5051679;28;11590;-84
2024/02/12 05:59:17;;;;;;;;;5.00;5.00;;;;;;;;5051717;28;11461;-88
2024/02/12 06:01:44;;;;;;;;;6.25;4.00;;;;;;;;5053378;28;11467;-85
2024/02/12 06:04:13;;;;;;;;;5.50;3.00;;;;;;;;5053156;28;11659;-83
2024/02/12 06:06:45;;;;;;;;;5.50;2.00;;;;;;;;5052123;28;11530;-90
2024/02/12 06:09:13;;;;;;;;;1.00;1.00;;;;;;;;5052139;28;11501;-84
2024/02/12 06:11:40;;;;;;;;;2.25;2.25;;;;;;;;5049340;28;11602;-77
2024/02/12 06:14:08;;;;;;;;;4.00;4.00;;;;;;;;5049511;28;11517;-82
2024/02/12 06:16:36;;;;;;;;;4.00;4.00;;;;;;;;5047818;28;11557;-85
2024/02/12 06:19:04;;;;;;;;;5.50;5.00;;;;;;;;5048870;28;11513;-83
2024/02/12 06:21:32;;;;;;;;;3.00;3.00;;;;;;;;5049685;28;11652;-80
2024/02/12 06:24:00;;;;;;;;;2.75;2.00;;;;;;;;5049907;28;11680;-83
2024/02/12 06:26:27;;;;;;;;;1.00;1.00;;;;;;;;5049332;28;11520;-79
2024/02/12 06:28:55;;;;;;;;;1.75;1.00;;;;;;;;5048865;28;11578;-80
2024/02/12 06:31:22;;;;;;;;;1.00;1.00;;;;;;;;5048504;28;11452;-79
2024/02/12 06:33:49;;;;;;;;;0.50;0.50;;;;;;;;5049030;28;11514;-80
2024/02/12 06:36:16;;;;;;;;;1.00;1.00;;;;;;;;5049979;28;12316;-77
2024/02/12 06:38:45;;;;;;;;;1.00;1.00;;;;;;;;5051506;28;11513;-78
2024/02/12 06:41:12;;;;;;;;;1.25;1.25;;;;;;;;5053290;28;11498;-84
2024/02/12 06:43:41;;;;;;;;;5.00;2.50;;;;;;;;5054123;28;11645;-83
2024/02/12 06:46:10;;;;;;;;;1.00;1.00;;;;;;;;5054672;28;11527;-84
2024/02/12 06:48:39;;;;;;;;;2.25;2.25;;;;;;;;5054036;28;11567;-79
2024/02/12 06:51:09;;;;;;;;;1.00;1.00;;;;;;;;5054526;28;11904;-78
2024/02/12 06:53:36;;;;;;;;;2.00;2.00;;;;;;;;5055042;28;11516;-83
2024/02/12 06:56:07;;;;;;;;;1.00;1.00;;;;;;;;5060905;28;11542;-76
2024/02/12 06:58:35;;;;;;;;;0.00;0.00;;;;;;;;5051804;28;11544;-82
2024/02/12 07:01:04;;;;;;;;;1.25;1.25;;;;;;;;5048808;28;11461;-75
2024/02/12 07:03:32;;;;;;;;;0.50;0.50;;;;;;;;5049981;28;11655;-82
2024/02/12 07:05:59;;;;;;;;;1.00;1.00;;;;;;;;5051181;28;11522;-84
2024/02/12 07:08:26;;;;;;;;;0.75;0.75;;;;;;;;5049983;28;11887;-84
2024/02/12 07:10:56;;;;;;;;;2.50;2.00;;;;;;;;5051098;28;11579;-83
2024/02/12 07:13:25;;;;;;;;;0.75;0.00;;;;;;;;5046488;28;11639;-82
2024/02/12 07:15:52;;;;;;;;;1.00;1.00;;;;;;;;5048811;28;12161;-83
2024/02/12 07:18:19;;;;;;;;;1.50;1.50;;;;;;;;5048081;28;11517;-81
2024/02/12 07:20:46;;;;;;;;;0.75;0.75;;;;;;;;5048597;28;11527;-82
2024/02/12 07:23:13;;;;;;;;;4.50;1.00;;;;;;;;5049030;28;11484;-83
2024/02/12 07:25:41;;;;;;;;;3.00;2.00;;;;;;;;5051160;28;12346;-75
2024/02/12 07:28:08;;;;;;;;;1.00;1.00;;;;;;;;5049815;28;11524;-79
2024/02/12 07:30:37;;;;;;;;;1.00;1.00;;;;;;;;5046478;28;11555;-80
2024/02/12 07:33:05;;;;;;;;;2.00;2.00;;;;;;;;5047632;28;12443;-81
2024/02/12 07:35:35;;;;;;;;;2.50;2.50;;;;;;;;5047457;28;11512;-73
2024/02/12 07:38:03;;;;;;;;;2.00;2.00;;;;;;;;5048043;28;11510;-80
2024/02/12 07:40:32;;;;;;;;;1.00;1.00;;;;;;;;5047394;28;11635;-79
2024/02/12 07:43:02;;;;;;;;;1.00;1.00;;;;;;;;5047702;28;12330;-81
2024/02/12 07:45:33;;;;;;;;;2.50;1.75;;;;;;;;5047374;28;11504;-77
2024/02/12 07:48:02;;;;;;;;;0.75;0.75;;;;;;;;5047663;28;11633;-81
2024/02/12 07:50:32;;;;;;;;;5.50;3.00;;;;;;;;5047318;28;11643;-75
2024/02/12 07:52:59;;;;;;;;;1.50;1.25;;;;;;;;5048046;28;11530;-79
2024/02/12 07:55:27;;;;;;;;;3.00;1.00;;;;;;;;5046895;28;11506;-80
2024/02/12 07:57:54;;;;;;;;;1.00;1.00;;;;;;;;5048077;28;11470;-79
2024/02/12 08:00:21;;;;;;;;;3.00;3.00;;;;;;;;5046652;28;11519;-77
2024/02/12 08:02:49;;;;;;;;;3.00;3.00;;;;;;;;5047474;28;11542;-77
2024/02/12 08:05:17;;;;;;;;;4.00;4.00;;;;;;;;5047141;28;11527;-76
2024/02/12 08:07:45;;;;;;;;;4.00;4.00;;;;;;;;5046739;28;12310;-80
2024/02/12 08:10:13;;;;;;;;;7.25;7.00;;;;;;;;5050585;28;12402;-75
2024/02/12 08:12:43;;;;;;;;;10.50;8.50;;;;;;;;5051880;28;11548;-78
2024/02/12 08:15:11;;;;;;;;;8.00;8.00;;;;;;;;5047980;28;12363;-80
2024/02/12 08:17:38;;;;;;;;;6.00;6.00;;;;;;;;5047246;28;11555;-79
2024/02/12 08:20:08;;;;;;;;;5.50;5.50;;;;;;;;5047961;28;11516;-76
2024/02/12 08:22:39;;;;;;;;;7.50;7.50;;;;;;;;5047536;28;11462;-77
2024/02/12 08:25:06;;;;;;;;;8.00;8.00;;;;;;;;5048387;28;12300;-78
2024/02/12 08:27:36;;;;;;;;;6.25;6.25;;;;;;;;5048164;28;12201;-73
2024/02/12 08:30:09;;;;;;;;;6.50;6.50;;;;;;;;5048757;28;11457;-73
2024/02/12 08:32:36;;;;;;;;;5.75;5.75;;;;;;;;5048854;28;11489;-79
2024/02/12 08:35:05;;;;;;;;;4.00;4.00;;;;;;;;5043009;28;11471;-76
2024/02/12 08:37:32;;;;;;;;;4.00;2.75;;;;;;;;5047741;28;11478;-78
2024/02/12 08:40:01;;;;;;;;;2.75;2.75;;;;;;;;5051574;28;11567;-79
2024/02/12 08:42:28;;;;;;;;;5.00;3.50;;;;;;;;5055246;28;11472;-79
2024/02/12 08:44:56;;;;;;;;;4.25;4.25;;;;;;;;5055871;28;11513;-82
2024/02/12 08:47:23;;;;;;;;;10.00;10.00;;;;;;;;5053080;28;12310;-84
2024/02/12 08:49:52;;;;;;;;;28.25;23.25;;;;;;;;5051652;28;11636;-85
2024/02/12 08:52:20;;;;;;;;;21.50;21.00;;;;;;;;5050887;28;11704;-84
2024/02/12 08:54:47;;;;;;;;;14.25;14.25;;;;;;;;5050180;28;11518;-76
2024/02/12 08:57:15;;;;;;;;;9.75;9.00;;;;;;;;5050687;28;11714;-75
2024/02/12 08:59:43;;;;;;;;;16.25;14.75;;;;;;;;5050252;28;11463;-77
2024/02/12 09:02:11;;;;;;;;;18.00;18.00;;;;;;;;5050358;28;11455;-79
2024/02/12 09:04:42;;;;;;;;;22.75;20.50;;;;;;;;5050067;28;11525;-77
2024/02/12 09:07:14;;;;;;;;;19.75;19.75;;;;;;;;5039813;28;11533;-75
2024/02/12 09:09:42;;;;;;;;;19.75;18.25;;;;;;;;5049916;28;11541;-78
2024/02/12 09:12:09;;;;;;;;;19.75;13.00;;;;;;;;5059629;28;11538;-75
2024/02/12 09:14:39;;;;;;;;;16.25;14.75;;;;;;;;5049960;28;11169;-74
2024/02/12 09:17:06;;;;;;;;;18.00;16.25;;;;;;;;5042599;28;11141;-79
2024/02/12 09:19:33;;;;;;;;;15.00;13.50;;;;;;;;5053775;28;11076;-73
2024/02/12 09:22:02;;;;;;;;;15.00;13.50;;;;;;;;5051240;28;11046;-78
2024/02/12 09:24:30;;;;;;;;;11.00;11.00;;;;;;;;5050902;28;11696;-82
2024/02/12 09:26:57;;;;;;;;;10.50;10.50;;;;;;;;5049947;28;11712;-73
2024/02/12 09:29:24;;;;;;;;;10.00;8.00;;;;;;;;5049608;28;10997;-77
2024/02/12 09:31:53;;;;;;;;;14.00;14.00;;;;;;;;5049964;28;10649;-76
2024/02/12 09:34:24;;;;;;;;;18.25;17.75;;;;;;;;5060544;28;10825;-69
2024/02/12 09:36:52;;;;;;;;;76.25;52.00;;;;;;;;5055787;28;10846;-75
2024/02/12 09:39:21;;;;;;;;;74.50;39.75;;;;;;;;5049778;28;11643;-75
2024/02/12 09:41:48;;;;;;;;;11.75;11.00;;;;;;;;5055207;28;11579;-80
2024/02/12 09:44:16;;;;;;;;;137.00;87.50;;;;;;;;5050998;28;10762;-80
2024/02/12 09:46:48;;;;;;;;;19.75;14.75;;;;;;;;5051093;28;11650;-81
2024/02/12 09:49:17;;;;;;;;;14.50;12.75;;;;;;;;5049907;28;10857;-78
2024/02/12 09:51:47;;;;;;;;;23.50;16.50;;;;;;;;5048892;28;10794;-77
2024/02/12 09:54:16;;;;;;;;;40.50;26.75;;;;;;;;5049790;28;10503;-81
2024/02/12 09:56:45;;;;;;;;;12.75;10.00;;;;;;;;5049147;28;11005;-74
2024/02/12 09:59:13;;;;;;;;;21.50;18.25;;;;;;;;5049592;28;10240;-78
2024/02/12 10:01:42;;;;;;;;;22.50;14.00;;;;;;;;5048167;28;11124;-75
2024/02/12 10:04:10;;;;;;;;;18.75;12.75;;;;;;;;5049631;28;10214;-78
2024/02/12 10:06:39;;;;;;;;;14.25;11.00;;;;;;;;5049300;28;10609;-77
2024/02/12 10:09:07;;;;;;;;;30.50;20.00;;;;;;;;5049428;28;10117;-75
2024/02/12 10:11:37;;;;;;;;;12.25;10.75;;;;;;;;5049114;28;10399;-76
2024/02/12 10:14:05;;;;;;;;;4.25;3.75;;;;;;;;5049562;28;9794;-71
2024/02/12 10:16:36;;;;;;;;;4.00;4.00;;;;;;;;5050285;28;9341;-74
2024/02/12 10:19:04;;;;;;;;;10.75;5.00;;;;;;;;5050908;28;9388;-74
2024/02/12 10:21:32;;;;;;;;;5.25;4.25;;;;;;;;5050159;28;9410;-75
2024/02/12 10:24:02;;;;;;;;;11.25;9.25;;;;;;;;5050523;28;9492;-75
2024/02/12 10:26:29;;;;;;;;;11.75;7.50;;;;;;;;5050309;28;9391;-77
2024/02/12 10:28:59;;;;;;;;;4.00;4.00;;;;;;;;5049856;28;9575;-80
2024/02/12 10:31:27;;;;;;;;;6.33;3.00;;;;;;;;5049682;28;9300;-77
2024/02/12 10:33:56;;;;;;;;;6.00;6.00;;;;;;;;5052389;28;9433;-76
2024/02/12 10:36:25;;;;;;;;;5.33;3.00;;;;;;;;5041355;28;9398;-73
2024/02/12 10:38:55;;;;;;;;;5.00;4.00;;;;;;;;5048664;28;9242;-76
2024/02/12 10:41:29;;;;;;;;;8.67;7.33;;;;;;;;5048483;28;9350;-74
2024/02/12 10:43:56;;;;;;;;;14.00;13.67;;;;;;;;5047808;28;9450;-73
2024/02/12 10:46:24;;;;;;;;;3.67;3.67;;;;;;;;5053264;28;9323;-74
2024/02/12 10:48:53;;;;;;;;;5.33;5.33;;;;;;;;5048425;28;9146;-74
2024/02/12 10:51:23;;;;;;;;;4.00;3.75;;;;;;;;5058972;28;9029;-73
2024/02/12 10:53:51;;;;;;;;;2.25;2.25;;;;;;;;5048331;28;8842;-78
2024/02/12 10:56:19;;;;;;;;;3.50;2.00;;;;;;;;5047733;28;8940;-78
2024/02/12 10:58:48;;;;;;;;;1.50;1.50;;;;;;;;5037856;28;8861;-74
2024/02/12 11:01:16;;;;;;;;;5.50;4.00;;;;;;;;5047743;28;8948;-75
2024/02/12 11:03:47;;;;;;;;;2.75;2.00;;;;;;;;5047599;28;8849;-75
2024/02/12 11:06:18;;;;;;;;;2.25;2.25;;;;;;;;5048274;28;9763;-76
2024/02/12 11:08:49;;;;;;;;;2.00;2.00;;;;;;;;5047849;28;9702;-74
2024/02/12 11:11:18;;;;;;;;;3.75;3.25;;;;;;;;5047771;28;8874;-74
2024/02/12 11:13:52;;;;;;;;;3.00;3.00;;;;;;;;5048185;28;8911;-76
2024/02/12 11:16:20;;;;;;;;;1.75;1.75;;;;;;;;5048092;28;9731;-78
2024/02/12 11:18:58;;;;;;;;;4.00;2.75;;;;;;;;5047964;28;8853;-79
2024/02/12 11:21:29;;;;;;;;;4.50;1.25;;;;;;;;5047553;28;8904;-79
2024/02/12 11:24:07;;;;;;;;;7.50;2.50;;;;;;;;5047517;28;9001;-73
2024/02/12 11:26:35;;;;;;;;;1.25;1.25;;;;;;;;5048107;28;8936;-73
2024/02/12 11:29:07;;;;;;;;;2.00;2.00;;;;;;;;5047526;28;8866;-74
2024/02/12 11:31:35;;;;;;;;;1.25;1.25;;;;;;;;5049373;28;8818;-76
2024/02/12 11:34:03;;;;;;;;;1.75;1.75;;;;;;;;5050432;28;8859;-75
2024/02/12 11:36:31;;;;;;;;;3.50;1.25;;;;;;;;5049603;28;8867;-76
2024/02/12 11:39:01;;;;;;;;;2.00;2.00;;;;;;;;5047838;28;8887;-76
2024/02/12 11:41:30;;;;;;;;;1.50;1.50;;;;;;;;5047668;28;8853;-76
2024/02/12 11:43:58;;;;;;;;;0.75;0.75;;;;;;;;5047770;28;8856;-78
2024/02/12 11:46:27;;;;;;;;;1.75;1.00;;;;;;;;5047476;28;8881;-76
2024/02/12 11:49:06;;;;;;;;;2.25;2.25;;;;;;;;5047778;28;8845;-75
2024/02/12 11:51:35;;;;;;;;;2.75;2.75;;;;;;;;5048328;28;9043;-75
2024/02/12 11:54:03;;;;;;;;;4.00;2.50;;;;;;;;5048259;28;8849;-76
2024/02/12 11:56:30;;;;;;;;;6.50;2.50;;;;;;;;5047614;28;8992;-81
2024/02/12 11:58:59;;;;;;;;;1.25;1.25;;;;;;;;5049718;28;8879;-78
2024/02/12 12:01:28;;;;;;;;;1.00;1.00;;;;;;;;5048163;28;8825;-74
2024/02/12 12:03:55;;;;;;;;;5.00;2.00;;;;;;;;5052384;28;8935;-81
2024/02/12 12:06:23;;;;;;;;;2.00;2.00;;;;;;;;5052047;28;8893;-72
2024/02/12 12:08:50;;;;;;;;;3.25;1.75;;;;;;;;5058543;28;8842;-73
2024/02/12 12:11:21;;;;;;;;;2.25;2.00;;;;;;;;5051216;28;8880;-75
2024/02/12 12:13:49;;;;;;;;;4.00;2.50;;;;;;;;5053554;28;8846;-77
2024/02/12 12:16:16;;;;;;;;;3.50;3.50;;;;;;;;5054899;28;8877;-76
2024/02/12 12:18:46;;;;;;;;;2.00;2.00;;;;;;;;5060961;28;8865;-73
2024/02/12 12:21:13;;;;;;;;;2.75;2.00;;;;;;;;5062882;28;8854;-72
2024/02/12 12:23:41;;;;;;;;;2.00;2.00;;;;;;;;5060880;28;8902;-72
2024/02/12 12:26:14;;;;;;;;;3.75;2.00;;;;;;;;5053647;28;8849;-72
2024/02/12 12:28:41;;;;;;;;;2.50;1.00;;;;;;;;5051178;28;8849;-75
2024/02/12 12:31:11;;;;;;;;;4.25;1.25;;;;;;;;5050125;28;8814;-73
2024/02/12 12:33:38;;;;;;;;;0.75;0.75;;;;;;;;5050776;28;8992;-76
2024/02/12 12:36:10;;;;;;;;;3.50;2.00;;;;;;;;5049978;28;8854;-79
2024/02/12 12:38:38;;;;;;;;;2.75;2.00;;;;;;;;5050411;28;8864;-74
2024/02/12 12:41:06;;;;;;;;;22.25;18.25;;;;;;;;5050447;28;8841;-75
2024/02/12 12:43:33;;;;;;;;;19.75;14.75;;;;;;;;5051163;28;8857;-76
2024/02/12 12:46:00;;;;;;;;;1.75;1.50;;;;;;;;5051567;28;8845;-80
2024/02/12 12:48:29;;;;;;;;;4.00;3.00;;;;;;;;5049021;28;8873;-77
2024/02/12 12:50:56;;;;;;;;;2.00;2.00;;;;;;;;5051174;28;8853;-76
2024/02/12 12:53:25;;;;;;;;;2.00;2.00;;;;;;;;5051370;28;8865;-76
2024/02/12 12:55:53;;;;;;;;;2.25;2.25;;;;;;;;5050900;28;8869;-80
2024/02/12 12:58:20;;;;;;;;;3.00;3.00;;;;;;;;5050740;28;8857;-78
2024/02/12 13:00:48;;;;;;;;;2.00;2.00;;;;;;;;5050736;28;8817;-75
2024/02/12 13:03:17;;;;;;;;;2.00;2.00;;;;;;;;5050675;28;8853;-77
2024/02/12 13:05:44;;;;;;;;;0.25;0.25;;;;;;;;5037924;28;8857;-78
2024/02/12 13:08:14;;;;;;;;;2.00;2.00;;;;;;;;5050734;28;8868;-76
2024/02/12 13:10:43;;;;;;;;;3.75;2.00;;;;;;;;5038478;28;8983;-74
2024/02/12 13:13:11;;;;;;;;;0.25;0.00;;;;;;;;5050279;28;8881;-75
2024/02/12 13:15:39;;;;;;;;;1.25;1.25;;;;;;;;5050284;28;9616;-79
2024/02/12 13:18:10;;;;;;;;;4.75;3.00;;;;;;;;5050711;28;8904;-79
2024/02/12 13:20:42;;;;;;;;;2.50;2.00;;;;;;;;5050556;28;8958;-76
2024/02/12 13:23:11;;;;;;;;;2.25;2.00;;;;;;;;5050802;28;8846;-75
2024/02/12 13:25:39;;;;;;;;;2.00;2.00;;;;;;;;5049394;28;8857;-74
2024/02/12 13:28:10;;;;;;;;;5.50;3.25;;;;;;;;5050548;28;8869;-76
2024/02/12 13:30:38;;;;;;;;;1.00;1.00;;;;;;;;5049249;28;8894;-74
2024/02/12 13:33:08;;;;;;;;;2.00;2.00;;;;;;;;5050291;28;8976;-78
2024/02/12 13:35:36;;;;;;;;;2.00;0.00;;;;;;;;5050252;28;8846;-77
2024/02/12 13:38:04;;;;;;;;;2.00;0.00;;;;;;;;5051044;28;8861;-78
2024/02/12 13:40:32;;;;;;;;;0.00;0.00;;;;;;;;5049919;28;9739;-76
2024/02/12 13:43:03;;;;;;;;;2.00;0.00;;;;;;;;5049939;28;8854;-77
2024/02/12 13:45:31;;;;;;;;;0.25;0.25;;;;;;;;5051037;28;8853;-77
2024/02/12 13:48:02;;;;;;;;;0.00;0.00;;;;;;;;5050190;28;8869;-74
2024/02/12 13:50:30;;;;;;;;;0.00;0.00;;;;;;;;5037777;28;8930;-75
2024/02/12 13:52:58;;;;;;;;;2.00;0.75;;;;;;;;5049785;28;9644;-77
2024/02/12 13:55:26;;;;;;;;;2.00;0.00;;;;;;;;5049429;28;8865;-75
2024/02/12 13:57:53;;;;;;;;;0.75;0.50;;;;;;;;5050500;28;8853;-75
2024/02/12 14:00:31;;;;;;;;;4.50;1.00;;;;;;;;5051942;28;8860;-75
2024/02/12 14:03:02;;;;;;;;;6.25;3.00;;;;;;;;5051990;28;8874;-78
2024/02/12 14:05:30;;;;;;;;;50.25;35.00;;;;;;;;5052068;28;8949;-76
2024/02/12 14:07:57;;;;;;;;;2.00;1.00;;;;;;;;5051278;28;8999;-73
2024/02/12 14:10:26;;;;;;;;;1.00;0.75;;;;;;;;5049793;28;8841;-74
2024/02/12 14:12:54;;;;;;;;;16.50;13.50;;;;;;;;5052074;28;8861;-76
2024/02/12 14:15:25;;;;;;;;;8.75;4.50;;;;;;;;5050356;28;8841;-75
2024/02/12 14:17:54;;;;;;;;;2.00;1.00;;;;;;;;5048745;28;8837;-75
2024/02/12 14:20:22;;;;;;;;;1.00;1.00;;;;;;;;5048718;28;8880;-76
2024/02/12 14:22:50;;;;;;;;;1.75;0.25;;;;;;;;5047985;28;8972;-74
2024/02/12 14:25:18;;;;;;;;;0.75;0.75;;;;;;;;5048793;28;8885;-75
2024/02/12 14:27:46;;;;;;;;;1.00;0.00;;;;;;;;5048609;28;8956;-76
2024/02/12 14:30:15;;;;;;;;;1.00;1.00;;;;;;;;5048207;28;9275;-76
2024/02/12 14:32:42;;;;;;;;;3.25;3.25;;;;;;;;5043584;28;8923;-78
2024/02/12 14:35:12;;;;;;;;;1.50;1.50;;;;;;;;5048325;28;8876;-76
2024/02/12 14:37:39;;;;;;;;;3.25;2.75;;;;;;;;5047965;28;8829;-77
2024/02/12 14:40:11;;;;;;;;;2.00;2.00;;;;;;;;5048343;28;8866;-74
2024/02/12 14:42:39;;;;;;;;;1.00;1.00;;;;;;;;5049004;28;8892;-75
2024/02/12 14:45:08;;;;;;;;;2.25;1.50;;;;;;;;5048798;28;8881;-77
2024/02/12 14:47:36;;;;;;;;;2.75;2.75;;;;;;;;5048377;28;8875;-75
2024/02/12 14:50:04;;;;;;;;;2.00;2.00;;;;;;;;5049258;28;8847;-79
2024/02/12 14:52:33;;;;;;;;;0.25;0.25;;;;;;;;5048204;28;8849;-78
2024/02/12 14:55:02;;;;;;;;;0.50;0.50;;;;;;;;5047696;28;8845;-74
2024/02/12 14:57:29;;;;;;;;;0.50;0.50;;;;;;;;5048029;28;8845;-74
2024/02/12 14:59:56;;;;;;;;;1.00;1.00;;;;;;;;5047852;28;8879;-78
2024/02/12 15:02:26;;;;;;;;;0.00;0.00;;;;;;;;5047741;28;8790;-80
2024/02/12 15:04:54;;;;;;;;;3.00;1.00;;;;;;;;5048065;28;8941;-75
2024/02/12 15:07:23;;;;;;;;;0.00;0.00;;;;;;;;5048317;28;9006;-77
2024/02/12 15:09:53;;;;;;;;;0.00;0.00;;;;;;;;5048724;28;8865;-76